Historyczne dane pomiarowe

Dodano dane terminowe – wersja testowa.

Dane z okresu 1951-2019

Wersja bazy: 1.34 [2019-03-16, lista zmian], aktualizacja planowana na 2019-04-15

Dane meteo z obszaru Polski uzyskane na podstawie danych udostępnionych przez Instytut Meteorologii i Gospodarki Wodnej – Państwowy Instytut Badawczy.

 

Wybierz Datę:    

       

TemperaturaWilgotnośćWiatrCiśnienieOpadyŚniegCzas trwania zjawisk
 Stacja t tx tn tng RH VA  wxwx mslp ppp RRR   cm mm wxwxwxwxwxwxwx
1999-08-14 13.5 19.1 8.7- 74.5- 5.0 0.3---- 0.0------------
1999-08-13 13.7 16.9 10.6- 82.8- 8.0 0.0---- 0.0------------
1999-08-12 15.8 18.3 14.2- 86.0- 6.7 0.0---- 1.9------------
1999-08-11 19.8 25.7 17.1- 85.0- 7.7 0.0---- 1.1------------
1999-08-10 23.5 29.6 18.8- 76.3- 7.0 2.7---- 6.2------------
1999-08-09 22.1 29.4 15.0- 76.3- 3.7 1.0---- 0.0------------
1999-08-08 20.2 23.6 16.0- 78.3- 6.0 2.7---- 0.0------------
1999-08-07 19.6 27.6 12.7- 75.8- 2.7 1.0---- 0.0------------
1999-08-06 18.1 23.8 13.2- 82.3- 8.0 2.0---- 20.7------------
1999-08-05 16.8 24.8 11.8- 75.0- 6.3 0.7---- 0.0------------
1999-08-04 15.4 20.8 11.0- 88.3- 7.7 0.7---- 1.1------------
1999-08-03 15.5 19.8 11.9- 79.5- 8.0 1.0---- 0.0------------
1999-08-02 14.3 16.0 13.0- 89.5- 8.0 1.0---- 1.5------------
1999-08-01 16.5 22.6 12.2- 81.8- 7.3 2.7---- 0.5------------
1999-07-31 17.2 23.0 13.1- 71.5- 6.3 1.3---- 1.4------------
1999-07-30 15.8 23.1 8.3- 68.8- 6.0 2.7---- 0.0------------
1999-07-29 16.9 22.0 13.0- 70.3- 5.0 3.0---- 0.0------------
1999-07-28 17.9 20.8 16.2- 81.5- 7.0 1.7---- 0.0------------
1999-07-27 19.3 25.0 15.7- 81.5- 7.7 2.0---- 0.0------------
1999-07-26 20.4 28.0 13.4- 81.3- 5.7 0.7---- 0.0------------
1999-07-25 16.6 22.2 11.2- 88.8- 8.0 1.3---- 0.0------------
1999-07-24 16.0 20.9 11.9- 84.3- 7.3 1.0---- 0.0------------
1999-07-23 15.5 20.3 13.1- 94.3- 8.0 0.7---- 10.4------------
1999-07-22 21.0 25.6 17.7- 83.0- 7.3 1.0---- 35.6------------
1999-07-21 21.2 27.7 15.1- 74.8- 2.3 0.7---- 0.2------------
1999-07-20 20.4 27.4 12.6- 69.3- 2.0 1.0---- 0.0------------
1999-07-19 16.6 24.9 8.5- 73.0- 4.3 0.0---- 0.0------------
1999-07-18 16.1 22.6 8.7- 71.8- 1.7 0.3---- 0.0------------
1999-07-17 14.8 21.8 8.9- 78.8- 4.3 0.7---- 0.0------------
1999-07-16 14.8 20.9 8.7- 82.8- 5.3 0.3---- 0.0------------
1999-07-15 15.6 18.7 13.7- 92.3- 6.3 0.7---- 7.4------------
1999-07-14 20.1 23.2 17.9- 76.0- 7.7 1.0---- 26.7------------
1999-07-13 19.8 23.6 16.9- 84.3- 7.0 1.0---- 0.0------------
1999-07-12 20.0 27.0 15.1- 77.8- 7.3 0.3---- 26.6------------
1999-07-11 20.5 23.9 16.8- 72.3- 7.7 2.7---- 0.0------------
1999-07-10 18.5 21.9 16.5- 90.8- 8.0 4.0---- 0.2------------
1999-07-09 20.8 25.8 16.5- 78.5- 7.0 2.7---- 0.0------------
1999-07-08 21.3 26.0 17.4- 80.3- 6.3 0.3---- 0.3------------
1999-07-07 22.9 30.2 16.8- 67.3- 5.0 0.7---- 17.3------------
1999-07-06 23.4 29.4 15.1- 64.8- 1.0 2.3---- 0.0------------
1999-07-05 22.5 29.9 14.3- 67.5- 1.0 0.3---- 0.0------------
1999-07-04 20.0 28.3 12.1- 72.0- 1.0 0.7---- 0.0------------
1999-07-03 18.7 23.8 13.5- 80.3- 5.0 0.7---- 0.0------------
1999-07-02 18.4 24.8 11.5- 76.3- 7.0 0.0---- 0.6------------
1999-07-01 17.9 24.3 11.9- 78.3- 5.7 0.7---- 0.0------------
1999-06-30 19.0 24.9 14.0- 77.3- 5.0 0.7---- 0.0------------
1999-06-29 17.5 23.3 12.3- 80.0- 6.3 0.3---- 0.0------------
1999-06-28 20.0 27.7 11.0- 70.3- 2.3 0.3---- 0.0------------
1999-06-27 17.7 25.6 8.6- 67.5- 0.0 1.0---- 0.0------------
1999-06-26 14.1 22.5 6.1- 80.0- 3.3 1.0---- 0.0------------
1999-06-25 12.8 17.9 9.1- 79.5- 4.7 0.0---- 0.0------------
1999-06-24 9.8 10.6 8.9- 96.0- 8.0 0.3---- 22.2------------
1999-06-23 8.8 10.9 7.1- 94.3- 8.0 0.7---- 10.6------------
1999-06-22 12.4 17.2 8.6- 91.3- 8.0 1.0---- 21.9------------
1999-06-21 17.7 23.9 12.6- 84.3- 7.7 1.7---- 44.1------------
1999-06-20 17.7 23.5 15.1- 85.8- 7.7 0.7---- 6.7------------
1999-06-19 17.8 22.6 14.7- 88.3- 8.0 0.7---- 0.0------------
1999-06-18 18.2 25.8 13.8- 79.8- 6.0 0.7---- 13.9------------
1999-06-17 18.3 23.6 15.1- 87.3- 8.0 0.7---- 4.3------------
1999-06-16 18.6 22.2 16.9- 87.8- 7.7 0.3---- 7.9------------
267.8 ms

 

Źródłem pochodzenia danych jest Instytut Meteorologii i Gospodarki Wodnej – Państwowy Instytut Badawczy. Dane Instytutu Meteorologii i Gospodarki Wodnej – Państwowego Instytutu Badawczego zostały przetworzone.

Dane źródłowe można odnaleźć na stronie https://dane.imgw.pl